sensor_id;sensor_type;location;lat;lon;timestamp;P1;durP1;ratioP1;P2;durP2;ratioP2
21761;SDS011;11203;50.870;20.682;2023-03-13T00:01:34;27.75;;;15.85;;
21761;SDS011;11203;50.870;20.682;2023-03-13T00:04:07;22.85;;;14.63;;
21761;SDS011;11203;50.870;20.682;2023-03-13T00:06:34;26.55;;;15.48;;
21761;SDS011;11203;50.870;20.682;2023-03-13T00:09:03;22.50;;;14.40;;
21761;SDS011;11203;50.870;20.682;2023-03-13T00:11:32;23.38;;;12.90;;
21761;SDS011;11203;50.870;20.682;2023-03-13T00:13:59;22.60;;;12.98;;
21761;SDS011;11203;50.870;20.682;2023-03-13T00:16:27;23.52;;;12.90;;
21761;SDS011;11203;50.870;20.682;2023-03-13T00:18:55;20.98;;;12.65;;
21761;SDS011;11203;50.870;20.682;2023-03-13T00:21:23;20.73;;;12.52;;
21761;SDS011;11203;50.870;20.682;2023-03-13T00:23:53;18.90;;;11.75;;
21761;SDS011;11203;50.870;20.682;2023-03-13T00:26:21;22.80;;;11.80;;
21761;SDS011;11203;50.870;20.682;2023-03-13T00:28:50;19.05;;;11.05;;
21761;SDS011;11203;50.870;20.682;2023-03-13T00:31:24;23.05;;;11.40;;
21761;SDS011;11203;50.870;20.682;2023-03-13T00:33:59;19.77;;;11.05;;
21761;SDS011;11203;50.870;20.682;2023-03-13T00:36:31;22.10;;;11.95;;
21761;SDS011;11203;50.870;20.682;2023-03-13T00:38:59;18.27;;;10.23;;
21761;SDS011;11203;50.870;20.682;2023-03-13T00:41:27;21.40;;;11.55;;
21761;SDS011;11203;50.870;20.682;2023-03-13T00:43:55;22.25;;;12.98;;
21761;SDS011;11203;50.870;20.682;2023-03-13T00:46:23;19.00;;;11.70;;
21761;SDS011;11203;50.870;20.682;2023-03-13T00:48:52;18.15;;;11.50;;
21761;SDS011;11203;50.870;20.682;2023-03-13T00:51:18;16.95;;;10.80;;
21761;SDS011;11203;50.870;20.682;2023-03-13T00:53:51;20.25;;;10.65;;
21761;SDS011;11203;50.870;20.682;2023-03-13T00:56:18;16.45;;;11.35;;
21761;SDS011;11203;50.870;20.682;2023-03-13T00:58:45;20.95;;;12.02;;
21761;SDS011;11203;50.870;20.682;2023-03-13T01:01:14;18.83;;;11.70;;
21761;SDS011;11203;50.870;20.682;2023-03-13T01:03:54;17.77;;;12.55;;
21761;SDS011;11203;50.870;20.682;2023-03-13T01:06:24;19.35;;;12.43;;
21761;SDS011;11203;50.870;20.682;2023-03-13T01:08:52;18.15;;;13.05;;
21761;SDS011;11203;50.870;20.682;2023-03-13T01:11:20;17.88;;;10.15;;
21761;SDS011;11203;50.870;20.682;2023-03-13T01:13:52;20.95;;;12.15;;
21761;SDS011;11203;50.870;20.682;2023-03-13T01:16:20;20.33;;;13.18;;
21761;SDS011;11203;50.870;20.682;2023-03-13T01:18:49;20.30;;;13.73;;
21761;SDS011;11203;50.870;20.682;2023-03-13T01:21:21;22.92;;;12.40;;
21761;SDS011;11203;50.870;20.682;2023-03-13T01:23:49;19.30;;;13.35;;
21761;SDS011;11203;50.870;20.682;2023-03-13T01:26:17;22.33;;;14.23;;
21761;SDS011;11203;50.870;20.682;2023-03-13T01:28:43;23.92;;;13.80;;
21761;SDS011;11203;50.870;20.682;2023-03-13T01:31:17;20.02;;;13.30;;
21761;SDS011;11203;50.870;20.682;2023-03-13T01:33:53;21.25;;;13.45;;
21761;SDS011;11203;50.870;20.682;2023-03-13T01:36:22;22.63;;;13.88;;
21761;SDS011;11203;50.870;20.682;2023-03-13T01:38:49;23.48;;;13.38;;
21761;SDS011;11203;50.870;20.682;2023-03-13T01:41:18;21.63;;;13.15;;
21761;SDS011;11203;50.870;20.682;2023-03-13T01:43:45;19.50;;;12.43;;
21761;SDS011;11203;50.870;20.682;2023-03-13T01:46:16;21.95;;;13.25;;
21761;SDS011;11203;50.870;20.682;2023-03-13T01:48:57;23.33;;;14.23;;
21761;SDS011;11203;50.870;20.682;2023-03-13T01:54:23;34.15;;;22.33;;
21761;SDS011;11203;50.870;20.682;2023-03-13T01:56:59;33.38;;;21.52;;
21761;SDS011;11203;50.870;20.682;2023-03-13T01:59:36;26.92;;;19.05;;
21761;SDS011;11203;50.870;20.682;2023-03-13T02:02:09;24.02;;;16.00;;
21761;SDS011;11203;50.870;20.682;2023-03-13T02:04:37;25.48;;;15.63;;
21761;SDS011;11203;50.870;20.682;2023-03-13T02:07:10;23.35;;;14.07;;
21761;SDS011;11203;50.870;20.682;2023-03-13T02:09:49;22.13;;;13.80;;
21761;SDS011;11203;50.870;20.682;2023-03-13T02:12:20;25.33;;;14.95;;
21761;SDS011;11203;50.870;20.682;2023-03-13T02:14:56;23.35;;;14.82;;
21761;SDS011;11203;50.870;20.682;2023-03-13T02:17:27;29.15;;;18.92;;
21761;SDS011;11203;50.870;20.682;2023-03-13T02:19:54;30.20;;;21.30;;
21761;SDS011;11203;50.870;20.682;2023-03-13T02:27:49;30.85;;;18.73;;
21761;SDS011;11203;50.870;20.682;2023-03-13T02:30:28;28.77;;;17.80;;
21761;SDS011;11203;50.870;20.682;2023-03-13T02:32:54;34.03;;;19.38;;
21761;SDS011;11203;50.870;20.682;2023-03-13T02:35:21;29.73;;;18.52;;
21761;SDS011;11203;50.870;20.682;2023-03-13T02:37:52;32.47;;;19.08;;
21761;SDS011;11203;50.870;20.682;2023-03-13T02:40:25;36.03;;;22.83;;
21761;SDS011;11203;50.870;20.682;2023-03-13T02:42:55;35.30;;;22.25;;
21761;SDS011;11203;50.870;20.682;2023-03-13T02:45:25;32.63;;;21.85;;
21761;SDS011;11203;50.870;20.682;2023-03-13T02:47:51;34.95;;;22.50;;
21761;SDS011;11203;50.870;20.682;2023-03-13T02:50:17;30.83;;;20.35;;
21761;SDS011;11203;50.870;20.682;2023-03-13T02:52:45;42.45;;;27.13;;
21761;SDS011;11203;50.870;20.682;2023-03-13T02:55:36;30.80;;;20.08;;
21761;SDS011;11203;50.870;20.682;2023-03-13T02:58:05;37.47;;;22.75;;
21761;SDS011;11203;50.870;20.682;2023-03-13T03:00:32;30.25;;;20.67;;
21761;SDS011;11203;50.870;20.682;2023-03-13T03:02:58;34.92;;;22.42;;
21761;SDS011;11203;50.870;20.682;2023-03-13T03:05:24;27.95;;;18.50;;
21761;SDS011;11203;50.870;20.682;2023-03-13T03:07:51;28.33;;;16.73;;
21761;SDS011;11203;50.870;20.682;2023-03-13T03:10:17;28.10;;;16.40;;
21761;SDS011;11203;50.870;20.682;2023-03-13T03:12:44;32.22;;;19.77;;
21761;SDS011;11203;50.870;20.682;2023-03-13T03:15:10;29.33;;;18.20;;
21761;SDS011;11203;50.870;20.682;2023-03-13T03:17:37;34.65;;;18.77;;
21761;SDS011;11203;50.870;20.682;2023-03-13T03:20:04;30.80;;;18.73;;
21761;SDS011;11203;50.870;20.682;2023-03-13T03:22:36;27.92;;;17.17;;
21761;SDS011;11203;50.870;20.682;2023-03-13T03:25:05;37.17;;;22.05;;
21761;SDS011;11203;50.870;20.682;2023-03-13T03:27:33;49.90;;;26.67;;
21761;SDS011;11203;50.870;20.682;2023-03-13T03:30:01;37.45;;;22.10;;
21761;SDS011;11203;50.870;20.682;2023-03-13T03:32:29;39.58;;;23.30;;
21761;SDS011;11203;50.870;20.682;2023-03-13T03:34:55;28.20;;;19.02;;
21761;SDS011;11203;50.870;20.682;2023-03-13T03:37:21;35.92;;;22.00;;
21761;SDS011;11203;50.870;20.682;2023-03-13T03:39:48;32.38;;;19.45;;
21761;SDS011;11203;50.870;20.682;2023-03-13T03:42:14;37.10;;;23.20;;
21761;SDS011;11203;50.870;20.682;2023-03-13T03:44:40;33.08;;;19.88;;
21761;SDS011;11203;50.870;20.682;2023-03-13T03:47:06;35.58;;;22.00;;
21761;SDS011;11203;50.870;20.682;2023-03-13T03:49:33;65.40;;;32.72;;
21761;SDS011;11203;50.870;20.682;2023-03-13T03:51:59;58.08;;;32.47;;
21761;SDS011;11203;50.870;20.682;2023-03-13T03:54:25;30.48;;;20.50;;
21761;SDS011;11203;50.870;20.682;2023-03-13T03:56:51;27.88;;;18.67;;
21761;SDS011;11203;50.870;20.682;2023-03-13T03:59:17;40.63;;;24.17;;
21761;SDS011;11203;50.870;20.682;2023-03-13T04:01:43;61.47;;;32.45;;
21761;SDS011;11203;50.870;20.682;2023-03-13T04:04:09;35.10;;;22.73;;
21761;SDS011;11203;50.870;20.682;2023-03-13T04:06:35;44.38;;;24.38;;
21761;SDS011;11203;50.870;20.682;2023-03-13T04:09:02;48.88;;;29.65;;
21761;SDS011;11203;50.870;20.682;2023-03-13T04:11:29;38.15;;;26.10;;
21761;SDS011;11203;50.870;20.682;2023-03-13T04:13:55;38.03;;;23.73;;
21761;SDS011;11203;50.870;20.682;2023-03-13T04:16:21;46.28;;;30.08;;
21761;SDS011;11203;50.870;20.682;2023-03-13T04:18:47;72.95;;;46.08;;
21761;SDS011;11203;50.870;20.682;2023-03-13T04:21:13;71.25;;;47.85;;
21761;SDS011;11203;50.870;20.682;2023-03-13T04:23:40;70.28;;;51.38;;
21761;SDS011;11203;50.870;20.682;2023-03-13T04:26:05;60.47;;;41.50;;
21761;SDS011;11203;50.870;20.682;2023-03-13T04:28:32;32.53;;;20.05;;
21761;SDS011;11203;50.870;20.682;2023-03-13T04:30:58;29.90;;;19.77;;
21761;SDS011;11203;50.870;20.682;2023-03-13T04:33:25;30.67;;;21.55;;
21761;SDS011;11203;50.870;20.682;2023-03-13T04:35:52;48.97;;;35.95;;
21761;SDS011;11203;50.870;20.682;2023-03-13T04:38:18;53.90;;;34.17;;
21761;SDS011;11203;50.870;20.682;2023-03-13T04:40:44;91.32;;;49.25;;
21761;SDS011;11203;50.870;20.682;2023-03-13T04:43:12;101.68;;;56.20;;
21761;SDS011;11203;50.870;20.682;2023-03-13T04:45:38;41.30;;;26.17;;
21761;SDS011;11203;50.870;20.682;2023-03-13T04:48:04;48.13;;;32.05;;
21761;SDS011;11203;50.870;20.682;2023-03-13T04:50:30;288.63;;;131.32;;
21761;SDS011;11203;50.870;20.682;2023-03-13T04:52:57;190.35;;;93.60;;
21761;SDS011;11203;50.870;20.682;2023-03-13T04:55:22;94.65;;;51.42;;
21761;SDS011;11203;50.870;20.682;2023-03-13T04:57:49;39.95;;;25.40;;
21761;SDS011;11203;50.870;20.682;2023-03-13T05:00:15;45.72;;;33.25;;
21761;SDS011;11203;50.870;20.682;2023-03-13T05:02:41;42.65;;;30.13;;
21761;SDS011;11203;50.870;20.682;2023-03-13T05:05:08;50.55;;;38.08;;
21761;SDS011;11203;50.870;20.682;2023-03-13T05:07:34;40.72;;;30.10;;
21761;SDS011;11203;50.870;20.682;2023-03-13T05:10:00;95.43;;;81.50;;
21761;SDS011;11203;50.870;20.682;2023-03-13T05:12:26;72.80;;;56.78;;
21761;SDS011;11203;50.870;20.682;2023-03-13T05:14:52;67.13;;;49.50;;
21761;SDS011;11203;50.870;20.682;2023-03-13T05:17:18;85.30;;;71.28;;
21761;SDS011;11203;50.870;20.682;2023-03-13T05:19:45;79.95;;;64.32;;
21761;SDS011;11203;50.870;20.682;2023-03-13T05:22:12;43.20;;;31.00;;
21761;SDS011;11203;50.870;20.682;2023-03-13T05:24:38;121.00;;;88.75;;
21761;SDS011;11203;50.870;20.682;2023-03-13T05:27:04;57.50;;;40.35;;
21761;SDS011;11203;50.870;20.682;2023-03-13T05:29:30;117.93;;;75.40;;
21761;SDS011;11203;50.870;20.682;2023-03-13T05:31:56;239.98;;;102.40;;
21761;SDS011;11203;50.870;20.682;2023-03-13T05:34:23;122.88;;;56.97;;
21761;SDS011;11203;50.870;20.682;2023-03-13T05:36:51;53.05;;;26.55;;
21761;SDS011;11203;50.870;20.682;2023-03-13T05:39:17;39.45;;;25.23;;
21761;SDS011;11203;50.870;20.682;2023-03-13T05:41:44;124.60;;;46.85;;
21761;SDS011;11203;50.870;20.682;2023-03-13T05:44:10;74.05;;;34.92;;
21761;SDS011;11203;50.870;20.682;2023-03-13T05:46:36;48.28;;;27.33;;
21761;SDS011;11203;50.870;20.682;2023-03-13T05:49:02;40.60;;;26.50;;
21761;SDS011;11203;50.870;20.682;2023-03-13T05:51:28;120.75;;;50.33;;
21761;SDS011;11203;50.870;20.682;2023-03-13T05:53:55;46.35;;;28.98;;
21761;SDS011;11203;50.870;20.682;2023-03-13T05:56:21;32.95;;;21.42;;
21761;SDS011;11203;50.870;20.682;2023-03-13T05:58:47;46.72;;;29.50;;
21761;SDS011;11203;50.870;20.682;2023-03-13T06:01:14;24.63;;;15.48;;
21761;SDS011;11203;50.870;20.682;2023-03-13T06:03:40;26.88;;;17.75;;
21761;SDS011;11203;50.870;20.682;2023-03-13T06:06:06;25.83;;;19.83;;
21761;SDS011;11203;50.870;20.682;2023-03-13T06:08:32;39.75;;;21.88;;
21761;SDS011;11203;50.870;20.682;2023-03-13T06:10:59;39.90;;;25.33;;
21761;SDS011;11203;50.870;20.682;2023-03-13T06:13:26;55.22;;;30.48;;
21761;SDS011;11203;50.870;20.682;2023-03-13T06:15:53;39.78;;;26.30;;
21761;SDS011;11203;50.870;20.682;2023-03-13T06:18:22;32.45;;;22.25;;
21761;SDS011;11203;50.870;20.682;2023-03-13T06:20:49;30.02;;;19.77;;
21761;SDS011;11203;50.870;20.682;2023-03-13T06:23:22;31.00;;;16.75;;
21761;SDS011;11203;50.870;20.682;2023-03-13T06:25:48;32.13;;;19.58;;
21761;SDS011;11203;50.870;20.682;2023-03-13T06:28:15;35.17;;;19.65;;
21761;SDS011;11203;50.870;20.682;2023-03-13T06:30:42;28.25;;;17.50;;
21761;SDS011;11203;50.870;20.682;2023-03-13T06:33:08;33.78;;;19.48;;
21761;SDS011;11203;50.870;20.682;2023-03-13T06:35:34;35.00;;;20.60;;
21761;SDS011;11203;50.870;20.682;2023-03-13T06:38:00;40.08;;;24.92;;
21761;SDS011;11203;50.870;20.682;2023-03-13T06:40:26;44.30;;;24.67;;
21761;SDS011;11203;50.870;20.682;2023-03-13T06:42:52;34.10;;;20.42;;
21761;SDS011;11203;50.870;20.682;2023-03-13T06:45:18;27.17;;;16.80;;
21761;SDS011;11203;50.870;20.682;2023-03-13T06:47:44;28.77;;;17.50;;
21761;SDS011;11203;50.870;20.682;2023-03-13T06:50:11;28.00;;;16.83;;
21761;SDS011;11203;50.870;20.682;2023-03-13T06:52:37;28.70;;;16.55;;
21761;SDS011;11203;50.870;20.682;2023-03-13T06:55:03;26.05;;;18.25;;
21761;SDS011;11203;50.870;20.682;2023-03-13T06:57:30;47.20;;;28.08;;
21761;SDS011;11203;50.870;20.682;2023-03-13T06:59:56;29.92;;;20.60;;
21761;SDS011;11203;50.870;20.682;2023-03-13T07:02:22;30.10;;;20.02;;
21761;SDS011;11203;50.870;20.682;2023-03-13T07:04:49;33.67;;;21.55;;
21761;SDS011;11203;50.870;20.682;2023-03-13T07:07:15;26.60;;;17.60;;
21761;SDS011;11203;50.870;20.682;2023-03-13T07:09:41;26.92;;;18.33;;
21761;SDS011;11203;50.870;20.682;2023-03-13T07:12:07;25.95;;;17.25;;
21761;SDS011;11203;50.870;20.682;2023-03-13T07:14:33;31.80;;;22.55;;
21761;SDS011;11203;50.870;20.682;2023-03-13T07:17:00;52.97;;;35.60;;
21761;SDS011;11203;50.870;20.682;2023-03-13T07:19:26;32.55;;;22.30;;
21761;SDS011;11203;50.870;20.682;2023-03-13T07:21:52;28.13;;;18.95;;
21761;SDS011;11203;50.870;20.682;2023-03-13T07:24:18;36.83;;;24.35;;
21761;SDS011;11203;50.870;20.682;2023-03-13T07:26:45;39.85;;;26.65;;
21761;SDS011;11203;50.870;20.682;2023-03-13T07:29:11;37.42;;;24.30;;
21761;SDS011;11203;50.870;20.682;2023-03-13T07:31:37;43.63;;;30.58;;
21761;SDS011;11203;50.870;20.682;2023-03-13T07:34:04;130.68;;;97.43;;
21761;SDS011;11203;50.870;20.682;2023-03-13T07:36:30;98.15;;;75.65;;
21761;SDS011;11203;50.870;20.682;2023-03-13T07:38:56;44.38;;;35.60;;
21761;SDS011;11203;50.870;20.682;2023-03-13T07:41:22;24.95;;;19.55;;
21761;SDS011;11203;50.870;20.682;2023-03-13T07:43:48;38.08;;;28.45;;
21761;SDS011;11203;50.870;20.682;2023-03-13T07:46:15;22.80;;;16.88;;
21761;SDS011;11203;50.870;20.682;2023-03-13T07:48:44;22.38;;;16.52;;
21761;SDS011;11203;50.870;20.682;2023-03-13T07:51:15;22.63;;;17.17;;
21761;SDS011;11203;50.870;20.682;2023-03-13T07:53:47;47.00;;;26.52;;
21761;SDS011;11203;50.870;20.682;2023-03-13T07:56:14;23.02;;;15.40;;
21761;SDS011;11203;50.870;20.682;2023-03-13T07:58:44;26.85;;;16.92;;
21761;SDS011;11203;50.870;20.682;2023-03-13T08:01:18;20.92;;;15.27;;
21761;SDS011;11203;50.870;20.682;2023-03-13T08:03:48;23.77;;;16.48;;
21761;SDS011;11203;50.870;20.682;2023-03-13T08:06:19;19.40;;;12.88;;
21761;SDS011;11203;50.870;20.682;2023-03-13T08:08:50;12.25;;;9.88;;
21761;SDS011;11203;50.870;20.682;2023-03-13T08:11:18;14.43;;;10.40;;
21761;SDS011;11203;50.870;20.682;2023-03-13T08:13:50;15.15;;;10.05;;
21761;SDS011;11203;50.870;20.682;2023-03-13T08:16:18;14.60;;;9.35;;
21761;SDS011;11203;50.870;20.682;2023-03-13T08:18:48;12.73;;;9.23;;
21761;SDS011;11203;50.870;20.682;2023-03-13T08:21:21;11.38;;;7.90;;
21761;SDS011;11203;50.870;20.682;2023-03-13T08:23:53;12.20;;;8.48;;
21761;SDS011;11203;50.870;20.682;2023-03-13T08:26:31;12.50;;;8.60;;
21761;SDS011;11203;50.870;20.682;2023-03-13T08:28:59;12.18;;;7.88;;
21761;SDS011;11203;50.870;20.682;2023-03-13T08:31:30;9.90;;;7.85;;
21761;SDS011;11203;50.870;20.682;2023-03-13T08:33:59;10.13;;;7.85;;
21761;SDS011;11203;50.870;20.682;2023-03-13T08:36:30;11.38;;;7.82;;
21761;SDS011;11203;50.870;20.682;2023-03-13T08:39:19;11.68;;;7.45;;
21761;SDS011;11203;50.870;20.682;2023-03-13T08:41:46;11.20;;;7.72;;
21761;SDS011;11203;50.870;20.682;2023-03-13T08:44:13;13.02;;;7.70;;
21761;SDS011;11203;50.870;20.682;2023-03-13T08:46:42;13.85;;;8.77;;
21761;SDS011;11203;50.870;20.682;2023-03-13T08:49:09;13.63;;;9.20;;
21761;SDS011;11203;50.870;20.682;2023-03-13T08:51:36;11.10;;;8.38;;
21761;SDS011;11203;50.870;20.682;2023-03-13T08:54:02;10.50;;;8.07;;
21761;SDS011;11203;50.870;20.682;2023-03-13T08:56:29;12.02;;;9.15;;
21761;SDS011;11203;50.870;20.682;2023-03-13T08:58:57;11.88;;;8.32;;
21761;SDS011;11203;50.870;20.682;2023-03-13T09:01:27;13.30;;;8.40;;
21761;SDS011;11203;50.870;20.682;2023-03-13T09:03:56;13.48;;;8.23;;
21761;SDS011;11203;50.870;20.682;2023-03-13T09:06:22;14.38;;;9.38;;
21761;SDS011;11203;50.870;20.682;2023-03-13T09:08:48;11.70;;;8.75;;
21761;SDS011;11203;50.870;20.682;2023-03-13T09:11:15;11.60;;;8.07;;
21761;SDS011;11203;50.870;20.682;2023-03-13T09:13:45;12.98;;;8.48;;
21761;SDS011;11203;50.870;20.682;2023-03-13T09:16:18;13.55;;;8.45;;
21761;SDS011;11203;50.870;20.682;2023-03-13T09:18:47;11.75;;;8.45;;
21761;SDS011;11203;50.870;20.682;2023-03-13T09:21:22;11.40;;;8.15;;
21761;SDS011;11203;50.870;20.682;2023-03-13T09:23:52;13.43;;;9.27;;
21761;SDS011;11203;50.870;20.682;2023-03-13T09:26:18;11.15;;;8.57;;
21761;SDS011;11203;50.870;20.682;2023-03-13T09:28:46;14.23;;;8.55;;
21761;SDS011;11203;50.870;20.682;2023-03-13T09:31:13;13.95;;;8.10;;
21761;SDS011;11203;50.870;20.682;2023-03-13T09:33:43;14.18;;;8.25;;
21761;SDS011;11203;50.870;20.682;2023-03-13T09:36:11;14.15;;;8.63;;
21761;SDS011;11203;50.870;20.682;2023-03-13T09:38:37;13.38;;;8.18;;
21761;SDS011;11203;50.870;20.682;2023-03-13T09:46:47;13.68;;;8.65;;
21761;SDS011;11203;50.870;20.682;2023-03-13T09:57:47;14.85;;;8.38;;
21761;SDS011;11203;50.870;20.682;2023-03-13T10:00:24;13.65;;;8.13;;
21761;SDS011;11203;50.870;20.682;2023-03-13T10:05:36;12.65;;;8.00;;
21761;SDS011;11203;50.870;20.682;2023-03-13T10:13:25;13.45;;;7.78;;
21761;SDS011;11203;50.870;20.682;2023-03-13T10:16:06;13.05;;;7.63;;
21761;SDS011;11203;50.870;20.682;2023-03-13T10:18:46;14.93;;;8.65;;
21761;SDS011;11203;50.870;20.682;2023-03-13T10:21:19;12.27;;;7.72;;
21761;SDS011;11203;50.870;20.682;2023-03-13T10:26:23;11.07;;;7.25;;
21761;SDS011;11203;50.870;20.682;2023-03-13T10:28:54;12.38;;;6.68;;
21761;SDS011;11203;50.870;20.682;2023-03-13T10:31:38;14.52;;;7.80;;
21761;SDS011;11203;50.870;20.682;2023-03-13T10:34:05;14.68;;;7.20;;
21761;SDS011;11203;50.870;20.682;2023-03-13T10:36:41;14.25;;;7.38;;
21761;SDS011;11203;50.870;20.682;2023-03-13T10:39:16;13.13;;;7.50;;
21761;SDS011;11203;50.870;20.682;2023-03-13T10:41:46;16.33;;;7.35;;
21761;SDS011;11203;50.870;20.682;2023-03-13T10:44:18;9.52;;;6.28;;
21761;SDS011;11203;50.870;20.682;2023-03-13T10:46:57;11.23;;;6.63;;
21761;SDS011;11203;50.870;20.682;2023-03-13T10:49:29;11.15;;;6.65;;
21761;SDS011;11203;50.870;20.682;2023-03-13T10:51:58;13.75;;;6.13;;
21761;SDS011;11203;50.870;20.682;2023-03-13T10:54:32;13.02;;;6.47;;
21761;SDS011;11203;50.870;20.682;2023-03-13T10:59:47;12.13;;;6.20;;
21761;SDS011;11203;50.870;20.682;2023-03-13T11:07:51;13.60;;;5.78;;
21761;SDS011;11203;50.870;20.682;2023-03-13T11:10:18;13.90;;;5.70;;
21761;SDS011;11203;50.870;20.682;2023-03-13T11:12:49;12.10;;;5.57;;
21761;SDS011;11203;50.870;20.682;2023-03-13T11:15:25;10.13;;;4.82;;
21761;SDS011;11203;50.870;20.682;2023-03-13T11:18:15;12.05;;;5.88;;
21761;SDS011;11203;50.870;20.682;2023-03-13T11:20:49;13.32;;;5.43;;
21761;SDS011;11203;50.870;20.682;2023-03-13T11:26:01;12.93;;;5.78;;
21761;SDS011;11203;50.870;20.682;2023-03-13T11:29:20;13.05;;;5.95;;
21761;SDS011;11203;50.870;20.682;2023-03-13T11:32:30;12.38;;;4.63;;
21761;SDS011;11203;50.870;20.682;2023-03-13T11:35:16;15.38;;;4.78;;
21761;SDS011;11203;50.870;20.682;2023-03-13T11:37:53;12.80;;;4.88;;
21761;SDS011;11203;50.870;20.682;2023-03-13T11:40:29;13.30;;;5.07;;
21761;SDS011;11203;50.870;20.682;2023-03-13T11:43:24;11.93;;;5.03;;
21761;SDS011;11203;50.870;20.682;2023-03-13T12:00:30;12.38;;;4.40;;
21761;SDS011;11203;50.870;20.682;2023-03-13T12:06:28;10.43;;;4.22;;
21761;SDS011;11203;50.870;20.682;2023-03-13T12:11:32;18.27;;;4.82;;
21761;SDS011;11203;50.870;20.682;2023-03-13T12:16:47;8.52;;;4.00;;
21761;SDS011;11203;50.870;20.682;2023-03-13T12:20:00;10.13;;;3.70;;
21761;SDS011;11203;50.870;20.682;2023-03-13T12:23:19;10.38;;;4.35;;
21761;SDS011;11203;50.870;20.682;2023-03-13T12:35:43;11.85;;;4.40;;
21761;SDS011;11203;50.870;20.682;2023-03-13T12:37:54;7.45;;;2.88;;
21761;SDS011;11203;50.870;20.682;2023-03-13T12:43:50;8.73;;;3.67;;
21761;SDS011;11203;50.870;20.682;2023-03-13T12:46:26;12.18;;;4.20;;
21761;SDS011;11203;50.870;20.682;2023-03-13T12:52:09;10.95;;;4.30;;
21761;SDS011;11203;50.870;20.682;2023-03-13T13:00:53;10.38;;;4.05;;
21761;SDS011;11203;50.870;20.682;2023-03-13T13:03:28;7.80;;;3.80;;
21761;SDS011;11203;50.870;20.682;2023-03-13T13:05:57;10.80;;;3.90;;
21761;SDS011;11203;50.870;20.682;2023-03-13T13:08:36;10.48;;;4.30;;
21761;SDS011;11203;50.870;20.682;2023-03-13T13:16:51;9.98;;;4.00;;
21761;SDS011;11203;50.870;20.682;2023-03-13T13:30:02;7.70;;;3.22;;
21761;SDS011;11203;50.870;20.682;2023-03-13T13:32:52;10.65;;;4.65;;
21761;SDS011;11203;50.870;20.682;2023-03-13T13:35:39;13.30;;;5.05;;
21761;SDS011;11203;50.870;20.682;2023-03-13T13:43:36;8.45;;;4.10;;
21761;SDS011;11203;50.870;20.682;2023-03-13T13:46:17;12.45;;;6.18;;
21761;SDS011;11203;50.870;20.682;2023-03-13T13:51:35;11.38;;;4.80;;
21761;SDS011;11203;50.870;20.682;2023-03-13T13:54:29;7.68;;;4.13;;
21761;SDS011;11203;50.870;20.682;2023-03-13T13:56:58;6.35;;;3.72;;
21761;SDS011;11203;50.870;20.682;2023-03-13T13:59:33;9.25;;;4.03;;
21761;SDS011;11203;50.870;20.682;2023-03-13T14:02:13;6.68;;;4.20;;
21761;SDS011;11203;50.870;20.682;2023-03-13T14:04:55;9.68;;;4.43;;
21761;SDS011;11203;50.870;20.682;2023-03-13T14:13:00;9.55;;;3.45;;
21761;SDS011;11203;50.870;20.682;2023-03-13T14:15:35;4.78;;;3.22;;
21761;SDS011;11203;50.870;20.682;2023-03-13T14:18:09;8.73;;;3.70;;
21761;SDS011;11203;50.870;20.682;2023-03-13T14:23:44;10.57;;;4.93;;
21761;SDS011;11203;50.870;20.682;2023-03-13T14:28:52;8.63;;;4.57;;
21761;SDS011;11203;50.870;20.682;2023-03-13T14:31:20;10.25;;;4.70;;
21761;SDS011;11203;50.870;20.682;2023-03-13T14:33:49;11.35;;;4.55;;
21761;SDS011;11203;50.870;20.682;2023-03-13T14:36:16;6.25;;;3.78;;
21761;SDS011;11203;50.870;20.682;2023-03-13T14:38:56;7.05;;;4.20;;
21761;SDS011;11203;50.870;20.682;2023-03-13T14:41:28;6.68;;;3.20;;
21761;SDS011;11203;50.870;20.682;2023-03-13T14:44:04;7.22;;;3.90;;
21761;SDS011;11203;50.870;20.682;2023-03-13T14:46:39;7.07;;;4.45;;
21761;SDS011;11203;50.870;20.682;2023-03-13T14:51:47;9.38;;;4.88;;
21761;SDS011;11203;50.870;20.682;2023-03-13T14:54:55;7.93;;;4.70;;
21761;SDS011;11203;50.870;20.682;2023-03-13T14:57:29;6.63;;;3.47;;
21761;SDS011;11203;50.870;20.682;2023-03-13T15:00:22;7.88;;;4.20;;
21761;SDS011;11203;50.870;20.682;2023-03-13T15:05:42;11.20;;;5.68;;
21761;SDS011;11203;50.870;20.682;2023-03-13T15:08:13;10.23;;;5.60;;
21761;SDS011;11203;50.870;20.682;2023-03-13T15:10:43;8.05;;;4.55;;
21761;SDS011;11203;50.870;20.682;2023-03-13T15:15:50;8.07;;;4.05;;
21761;SDS011;11203;50.870;20.682;2023-03-13T15:18:19;6.55;;;4.60;;
21761;SDS011;11203;50.870;20.682;2023-03-13T15:20:55;6.85;;;2.92;;
21761;SDS011;11203;50.870;20.682;2023-03-13T15:23:50;3.63;;;3.03;;
21761;SDS011;11203;50.870;20.682;2023-03-13T15:26:20;3.58;;;2.38;;
21761;SDS011;11203;50.870;20.682;2023-03-13T15:28:48;4.78;;;2.80;;
21761;SDS011;11203;50.870;20.682;2023-03-13T15:31:14;5.03;;;3.20;;
21761;SDS011;11203;50.870;20.682;2023-03-13T15:33:41;5.22;;;3.50;;
21761;SDS011;11203;50.870;20.682;2023-03-13T15:36:08;8.65;;;5.55;;
21761;SDS011;11203;50.870;20.682;2023-03-13T15:38:35;5.38;;;3.60;;
21761;SDS011;11203;50.870;20.682;2023-03-13T15:41:03;5.45;;;3.72;;
21761;SDS011;11203;50.870;20.682;2023-03-13T15:43:29;9.52;;;4.78;;
21761;SDS011;11203;50.870;20.682;2023-03-13T15:45:55;6.43;;;4.38;;
21761;SDS011;11203;50.870;20.682;2023-03-13T15:48:23;7.07;;;4.25;;
21761;SDS011;11203;50.870;20.682;2023-03-13T15:50:52;5.95;;;4.35;;
21761;SDS011;11203;50.870;20.682;2023-03-13T15:53:32;9.68;;;5.18;;
21761;SDS011;11203;50.870;20.682;2023-03-13T15:56:00;8.65;;;5.75;;
21761;SDS011;11203;50.870;20.682;2023-03-13T15:58:36;7.07;;;5.35;;
21761;SDS011;11203;50.870;20.682;2023-03-13T16:01:02;7.20;;;5.10;;
21761;SDS011;11203;50.870;20.682;2023-03-13T16:03:29;7.50;;;4.28;;
21761;SDS011;11203;50.870;20.682;2023-03-13T16:05:55;7.72;;;4.95;;
21761;SDS011;11203;50.870;20.682;2023-03-13T16:08:26;9.80;;;5.40;;
21761;SDS011;11203;50.870;20.682;2023-03-13T16:10:53;7.65;;;4.82;;
21761;SDS011;11203;50.870;20.682;2023-03-13T16:13:20;7.32;;;4.93;;
21761;SDS011;11203;50.870;20.682;2023-03-13T16:15:46;9.02;;;5.45;;
21761;SDS011;11203;50.870;20.682;2023-03-13T16:18:15;8.88;;;4.97;;
21761;SDS011;11203;50.870;20.682;2023-03-13T16:20:46;8.73;;;5.43;;
21761;SDS011;11203;50.870;20.682;2023-03-13T16:23:13;10.20;;;5.57;;
21761;SDS011;11203;50.870;20.682;2023-03-13T16:25:41;10.23;;;5.93;;
21761;SDS011;11203;50.870;20.682;2023-03-13T16:28:10;8.18;;;5.57;;
21761;SDS011;11203;50.870;20.682;2023-03-13T16:30:38;8.98;;;6.75;;
21761;SDS011;11203;50.870;20.682;2023-03-13T16:33:06;10.32;;;5.63;;
21761;SDS011;11203;50.870;20.682;2023-03-13T16:35:32;7.88;;;5.00;;
21761;SDS011;11203;50.870;20.682;2023-03-13T16:37:59;8.60;;;5.57;;
21761;SDS011;11203;50.870;20.682;2023-03-13T16:40:31;9.15;;;5.40;;
21761;SDS011;11203;50.870;20.682;2023-03-13T16:42:58;10.38;;;5.40;;
21761;SDS011;11203;50.870;20.682;2023-03-13T16:48:25;9.77;;;5.07;;
21761;SDS011;11203;50.870;20.682;2023-03-13T16:50:51;11.40;;;6.05;;